LFTH 200030Z AUTO 03003KT CAVOK 15/11 Q1025 NOSIG LFTH 200000Z AUTO 03004KT CAVOK 15/12 Q1025 NOSIG LFTH 192330Z AUTO 03004KT CAVOK 15/12 Q1025 NOSIG LFTH 192300Z AUTO VRB03KT CAVOK 16/13 Q1025 NOSIG LFTH 192230Z AUTO VRB03KT CAVOK 17/13 Q1025 NOSIG LFTH 192200Z AUTO VRB02KT CAVOK 17/14 Q1025 NOSIG LFTH 192130Z AUTO 01003KT CAVOK 18/14 Q1025 NOSIG LFTH 192100Z AUTO 02003KT CAVOK 17/14 Q1025 NOSIG LFTH 192030Z AUTO 01003KT CAVOK 19/15 Q1025 NOSIG LFTH 192000Z AUTO 02002KT CAVOK 20/15 Q1025 NOSIG LFTH 191930Z AUTO 03002KT CAVOK 20/15 Q1025 NOSIG LFTH 191900Z AUTO 00000KT CAVOK 21/15 Q1025 NOSIG LFTH 191830Z AUTO 00000KT CAVOK 22/15 Q1024 NOSIG LFTH 191800Z AUTO VRB01KT CAVOK 24/15 Q1024 NOSIG LFTH 191730Z AUTO 14003KT 090V160 CAVOK 24/15 Q1024 NOSIG LFTH 191700Z AUTO VRB03KT CAVOK 24/14 Q1024 NOSIG LFTH 191630Z AUTO 12003KT 080V170 CAVOK 24/15 Q1024 NOSIG LFTH 191600Z AUTO 13004KT 100V170 CAVOK 25/15 Q1024 NOSIG LFTH 191530Z AUTO 12006KT 080V160 CAVOK 25/14 Q1024 NOSIG LFTH 191500Z AUTO 12006KT 090V150 CAVOK 25/14 Q1024 NOSIG LFTH 191430Z AUTO 12006KT 080V150 CAVOK 25/14 Q1025 NOSIG LFTH 191400Z AUTO 11009KT CAVOK 25/14 Q1025 TEMPO 11015G25KT LFTH 191330Z AUTO 09010KT 070V130 CAVOK 25/13 Q1025 TEMPO 11015G25KT LFTH 191300Z AUTO 09012KT CAVOK 26/12 Q1025 TEMPO 11015G25KT LFTH 191230Z AUTO 09011KT CAVOK 26/13 Q1025 TEMPO 11015G25KT LFTH 191200Z AUTO 09013KT CAVOK 26/12 Q1025 TEMPO 11015G25KT LFTH 191130Z AUTO 09013KT CAVOK 25/11 Q1025 TEMPO 11015G25KT LFTH 191100Z AUTO 10013KT CAVOK 26/12 Q1025 TEMPO 11015G25KT LFTH 191030Z AUTO 12012KT 090V150 CAVOK 25/11 Q1025 TEMPO 11015G25KT LFTH 191000Z AUTO 11011KT CAVOK 25/12 Q1025 TEMPO 11015G25KT LFTH 190930Z AUTO 11012KT CAVOK 26/10 Q1025 TEMPO 11015G25KT LFTH 190900Z AUTO 11012KT CAVOK 25/13 Q1025 TEMPO 11015G25KT LFTH 190830Z AUTO 11011KT 080V140 CAVOK 25/14 Q1024 TEMPO 11015G25KT LFTH 190800Z AUTO 10009KT CAVOK 25/14 Q1024 NOSIG LFTH 190730Z AUTO 10007KT 070V140 CAVOK 25/15 Q1024 NOSIG LFTH 190700Z AUTO VRB01KT CAVOK 25/15 Q1024 NOSIG LFTH 190630Z AUTO VRB03KT CAVOK 24/17 Q1023 NOSIG LFTH 190600Z AUTO VRB02KT CAVOK 22/16 Q1023 NOSIG LFTH 190530Z AUTO VRB02KT CAVOK 19/14 Q1023 NOSIG LFTH 190500Z AUTO VRB03KT CAVOK 16/13 Q1023 NOSIG LFTH 190430Z AUTO 01004KT CAVOK 15/13 Q1023 BECMG 09010KT LFTH 190400Z AUTO 02005KT CAVOK 14/12 Q1022 NOSIG LFTH 190330Z AUTO 01004KT CAVOK 14/13 Q1022 NOSIG LFTH 190300Z AUTO 02004KT CAVOK 14/13 Q1022 NOSIG LFTH 190230Z AUTO 03003KT 8000 NSC 14/13 Q1022 NOSIG LFTH 190200Z AUTO 02004KT 9000 NSC 15/14 Q1022 NOSIG LFTH 190130Z AUTO 01004KT 8000 NSC 15/14 Q1022 NOSIG LFTH 190100Z AUTO 02003KT 7000 NSC 15/14 Q1022 NOSIG LFTH 190030Z AUTO 02003KT 7000 NSC 15/14 Q1022 NOSIG LFTH 190000Z AUTO 36002KT 9000 NSC 16/15 Q1022 TEMPO 4000 BR LFTH 182330Z AUTO 02002KT 9000 NSC 16/15 Q1021 TEMPO 4000 BR LFTH 182300Z AUTO 02003KT 9000 NSC 16/15 Q1022 TEMPO 4000 BR LFTH 182230Z AUTO 03003KT 8000 NSC 16/15 Q1022 TEMPO 4000 BR LFTH 182200Z AUTO 01002KT CAVOK 17/16 Q1022 TEMPO 4000 BR LFTH 182130Z AUTO 35001KT 8000 NSC 18/16 Q1021 TEMPO 4000 BR LFTH 182100Z AUTO 02002KT CAVOK 19/17 Q1021 TEMPO 4000 BR LFTH 182030Z AUTO 00000KT CAVOK 19/17 Q1021 TEMPO 4000 BR LFTH 182000Z AUTO 00000KT CAVOK 19/17 Q1021 BECMG 13010KT LFTH 181930Z AUTO 10003KT CAVOK 19/17 Q1020 NOSIG LFTH 181900Z AUTO VRB02KT CAVOK 20/17 Q1020 NOSIG LFTH 181830Z AUTO VRB02KT CAVOK 20/18 Q1020 NOSIG LFTH 181800Z AUTO 11005KT CAVOK 21/18 Q1020 NOSIG LFTH 181730Z AUTO 11004KT 080V140 CAVOK 21/18 Q1020 NOSIG LFTH 181700Z AUTO 11006KT 070V150 CAVOK 22/18 Q1020 NOSIG LFTH 181630Z AUTO 13007KT 100V170 CAVOK 22/18 Q1020 NOSIG LFTH 181600Z AUTO 12007KT CAVOK 22/17 Q1020 NOSIG LFTH 181530Z AUTO 12008KT 100V170 CAVOK 22/18 Q1020 NOSIG LFTH 181500Z AUTO 12007KT 100V160 CAVOK 22/18 Q1019 NOSIG LFTH 181430Z AUTO 12008KT 090V160 CAVOK 22/18 Q1020 NOSIG LFTH 181400Z AUTO 12009KT 090V150 CAVOK 22/18 Q1020 NOSIG LFTH 181330Z AUTO 13009KT 090V160 CAVOK 22/18 Q1020 NOSIG LFTH 181300Z AUTO 11009KT 080V140 CAVOK 23/18 Q1020 NOSIG

METAR Messwerte "HYERES/LE PALYVE" LFTH

Zurück zur Übersicht

Ortsname
Ländercode / m ü. NN
Zeit Temperatur Taupunkt Rel.
Luftfeuchte
Luftdruck:
Altimeter
NN
Station
Wind in Beaufort
(Knoten)
Sichtweite
(Meter)
Wolken
(Meter über Grund)
Wettererscheinung
HYERES/LE PALYVE
FR 3
Fr 20.05. 02:30151177 %1025
1025
1025
NNO 2 (3)>= 10000Nicht signifikant 
HYERES/LE PALYVE
FR 3
Fr 20.05. 02:00151282 %1025
1025
1025
NNO 2 (4)>= 10000Nicht signifikant 
HYERES/LE PALYVE
FR 3
Fr 20.05. 01:30151282 %1025
1025
1025
NNO 2 (4)>= 10000Nicht signifikant 
HYERES/LE PALYVE
FR 3
Fr 20.05. 01:00161382 %1025
1025
1025
Uml 2 (3)>= 10000Nicht signifikant 
HYERES/LE PALYVE
FR 3
Fr 20.05. 00:30171377 %1025
1025
1025
Uml 2 (3)>= 10000Nicht signifikant 
HYERES/LE PALYVE
FR 3
Fr 20.05. 00:00171482 %1025
1025
1025
Uml 1 (2)>= 10000Nicht signifikant 
HYERES/LE PALYVE
FR 3
Do 19.05. 23:30181477 %1025
1025
1025
N 2 (3)>= 10000Nicht signifikant 
HYERES/LE PALYVE
FR 3
Do 19.05. 23:00171482 %1025
1025
1025
NNO 2 (3)>= 10000Nicht signifikant 
HYERES/LE PALYVE
FR 3
Do 19.05. 22:30191578 %1025
1025
1025
N 2 (3)>= 10000Nicht signifikant 
HYERES/LE PALYVE
FR 3
Do 19.05. 22:00201573 %1025
1025
1025
NNO 1 (2)>= 10000Nicht signifikant 
HYERES/LE PALYVE
FR 3
Do 19.05. 21:30201573 %1025
1025
1025
NNO 1 (2)>= 10000Nicht signifikant 
HYERES/LE PALYVE
FR 3
Do 19.05. 21:00211569 %1025
1025
1025
Windstill>= 10000Nicht signifikant 
HYERES/LE PALYVE
FR 3
Do 19.05. 20:30221565 %1024
1024
1024
Windstill>= 10000Nicht signifikant 
HYERES/LE PALYVE
FR 3
Do 19.05. 20:00241557 %1024
1024
1024
Uml 1 (1)>= 10000Nicht signifikant 
HYERES/LE PALYVE
FR 3
Do 19.05. 19:30241557 %1024
1024
1024
SO 2 (3)
O - SSO
>= 10000Nicht signifikant 
HYERES/LE PALYVE
FR 3
Do 19.05. 19:00241454 %1024
1024
1024
Uml 2 (3)>= 10000Nicht signifikant 
HYERES/LE PALYVE
FR 3
Do 19.05. 18:30241557 %1024
1024
1024
OSO 2 (3)
O - S
>= 10000Nicht signifikant 
HYERES/LE PALYVE
FR 3
Do 19.05. 18:00251554 %1024
1024
1024
SO 2 (4)
O - S
>= 10000Nicht signifikant 
HYERES/LE PALYVE
FR 3
Do 19.05. 17:30251450 %1024
1024
1024
OSO 2 (6)
O - SSO
>= 10000Nicht signifikant 
HYERES/LE PALYVE
FR 3
Do 19.05. 17:00251450 %1024
1024
1024
OSO 2 (6)
O - SSO
>= 10000Nicht signifikant 
HYERES/LE PALYVE
FR 3
Do 19.05. 16:30251450 %1025
1025
1025
OSO 2 (6)
O - SSO
>= 10000Nicht signifikant 
HYERES/LE PALYVE
FR 3
Do 19.05. 16:00251450 %1025
1025
1025
OSO 3 (9)
Bald zeitweise:
OSO 4 (15) - 6 (25)
>= 10000Nicht signifikant 
HYERES/LE PALYVE
FR 3
Do 19.05. 15:30251347 %1025
1025
1025
O 3 (10)
ONO - SO
Bald zeitweise:
OSO 4 (15) - 6 (25)
>= 10000Nicht signifikant 
HYERES/LE PALYVE
FR 3
Do 19.05. 15:00261242 %1025
1025
1025
O 4 (12)
Bald zeitweise:
OSO 4 (15) - 6 (25)
>= 10000Nicht signifikant 
HYERES/LE PALYVE
FR 3
Do 19.05. 14:30261345 %1025
1025
1025
O 4 (11)
Bald zeitweise:
OSO 4 (15) - 6 (25)
>= 10000Nicht signifikant 
HYERES/LE PALYVE
FR 3
Do 19.05. 14:00261242 %1025
1025
1025
O 4 (13)
Bald zeitweise:
OSO 4 (15) - 6 (25)
>= 10000Nicht signifikant 
HYERES/LE PALYVE
FR 3
Do 19.05. 13:30251141 %1025
1025
1025
O 4 (13)
Bald zeitweise:
OSO 4 (15) - 6 (25)
>= 10000Nicht signifikant 
HYERES/LE PALYVE
FR 3
Do 19.05. 13:00261242 %1025
1025
1025
O 4 (13)
Bald zeitweise:
OSO 4 (15) - 6 (25)
>= 10000Nicht signifikant 
HYERES/LE PALYVE
FR 3
Do 19.05. 12:30251141 %1025
1025
1025
OSO 4 (12)
O - SSO
Bald zeitweise:
OSO 4 (15) - 6 (25)
>= 10000Nicht signifikant 
HYERES/LE PALYVE
FR 3
Do 19.05. 12:00251244 %1025
1025
1025
OSO 4 (11)
Bald zeitweise:
OSO 4 (15) - 6 (25)
>= 10000Nicht signifikant 
HYERES/LE PALYVE
FR 3
Do 19.05. 11:30261037 %1025
1025
1025
OSO 4 (12)
Bald zeitweise:
OSO 4 (15) - 6 (25)
>= 10000Nicht signifikant 
HYERES/LE PALYVE
FR 3
Do 19.05. 11:00251347 %1025
1025
1025
OSO 4 (12)
Bald zeitweise:
OSO 4 (15) - 6 (25)
>= 10000Nicht signifikant 
HYERES/LE PALYVE
FR 3
Do 19.05. 10:30251450 %1024
1024
1024
OSO 4 (11)
O - SO
Bald zeitweise:
OSO 4 (15) - 6 (25)
>= 10000Nicht signifikant 
HYERES/LE PALYVE
FR 3
Do 19.05. 10:00251450 %1024
1024
1024
O 3 (9)>= 10000Nicht signifikant 
HYERES/LE PALYVE
FR 3
Do 19.05. 09:30251554 %1024
1024
1024
O 3 (7)
ONO - SO
>= 10000Nicht signifikant 
HYERES/LE PALYVE
FR 3
Do 19.05. 09:00251554 %1024
1024
1024
Uml 1 (1)>= 10000Nicht signifikant 
HYERES/LE PALYVE
FR 3
Do 19.05. 08:30241765 %1023
1023
1023
Uml 2 (3)>= 10000Nicht signifikant 
HYERES/LE PALYVE
FR 3
Do 19.05. 08:00221669 %1023
1023
1023
Uml 1 (2)>= 10000Nicht signifikant 
HYERES/LE PALYVE
FR 3
Do 19.05. 07:30191473 %1023
1023
1023
Uml 1 (2)>= 10000Nicht signifikant 
HYERES/LE PALYVE
FR 3
Do 19.05. 07:00161382 %1023
1023
1023
Uml 2 (3)>= 10000Nicht signifikant 
HYERES/LE PALYVE
FR 3
Do 19.05. 06:30151388 %1023
1023
1023
N 2 (4)
Bald Übergang zu:
O 3 (10)
>= 10000Nicht signifikant 
HYERES/LE PALYVE
FR 3
Do 19.05. 06:00141288 %1022
1022
1022
NNO 2 (5)>= 10000Nicht signifikant 
HYERES/LE PALYVE
FR 3
Do 19.05. 05:30141394 %1022
1022
1022
N 2 (4)>= 10000Nicht signifikant 
HYERES/LE PALYVE
FR 3
Do 19.05. 05:00141394 %1022
1022
1022
NNO 2 (4)>= 10000Nicht signifikant 
HYERES/LE PALYVE
FR 3
Do 19.05. 04:30141394 %1022
1022
1022
NNO 2 (3)8000Nicht signifikant 
HYERES/LE PALYVE
FR 3
Do 19.05. 04:00151494 %1022
1022
1022
NNO 2 (4)9000Nicht signifikant 
HYERES/LE PALYVE
FR 3
Do 19.05. 03:30151494 %1022
1022
1022
N 2 (4)8000Nicht signifikant 
HYERES/LE PALYVE
FR 3
Do 19.05. 03:00151494 %1022
1022
1022
NNO 2 (3)7000Nicht signifikant 
HYERES/LE PALYVE
FR 3
Do 19.05. 02:30151494 %1022
1022
1022
NNO 2 (3)7000Nicht signifikant 
HYERES/LE PALYVE
FR 3
Do 19.05. 02:00161594 %1022
1022
1022
N 1 (2)9000
Bald zeitweise: 4000
Nicht signifikant Bald zeitweise: Nebeldunst
HYERES/LE PALYVE
FR 3
Do 19.05. 01:30161594 %1021
1021
1021
NNO 1 (2)9000
Bald zeitweise: 4000
Nicht signifikant Bald zeitweise: Nebeldunst
HYERES/LE PALYVE
FR 3
Do 19.05. 01:00161594 %1022
1022
1022
NNO 2 (3)9000
Bald zeitweise: 4000
Nicht signifikant Bald zeitweise: Nebeldunst
HYERES/LE PALYVE
FR 3
Do 19.05. 00:30161594 %1022
1022
1022
NNO 2 (3)8000
Bald zeitweise: 4000
Nicht signifikant Bald zeitweise: Nebeldunst
HYERES/LE PALYVE
FR 3
Do 19.05. 00:00171694 %1022
1022
1022
N 1 (2)>= 10000
Bald zeitweise: 4000
Nicht signifikant Bald zeitweise: Nebeldunst
HYERES/LE PALYVE
FR 3
Mi 18.05. 23:30181688 %1021
1021
1021
N 1 (1)8000
Bald zeitweise: 4000
Nicht signifikant Bald zeitweise: Nebeldunst
HYERES/LE PALYVE
FR 3
Mi 18.05. 23:00191788 %1021
1021
1021
NNO 1 (2)>= 10000
Bald zeitweise: 4000
Nicht signifikant Bald zeitweise: Nebeldunst
HYERES/LE PALYVE
FR 3
Mi 18.05. 22:30191788 %1021
1021
1021
Windstill>= 10000
Bald zeitweise: 4000
Nicht signifikant Bald zeitweise: Nebeldunst
HYERES/LE PALYVE
FR 3
Mi 18.05. 22:00191788 %1021
1021
1021
Windstill
Bald Übergang zu:
SO 3 (10)
>= 10000Nicht signifikant 
HYERES/LE PALYVE
FR 3
Mi 18.05. 21:30191788 %1020
1020
1020
O 2 (3)>= 10000Nicht signifikant 
HYERES/LE PALYVE
FR 3
Mi 18.05. 21:00201783 %1020
1020
1020
Uml 1 (2)>= 10000Nicht signifikant 
HYERES/LE PALYVE
FR 3
Mi 18.05. 20:30201888 %1020
1020
1020
Uml 1 (2)>= 10000Nicht signifikant 
HYERES/LE PALYVE
FR 3
Mi 18.05. 20:00211883 %1020
1020
1020
OSO 2 (5)>= 10000Nicht signifikant 
HYERES/LE PALYVE
FR 3
Mi 18.05. 19:30211883 %1020
1020
1020
OSO 2 (4)
O - SO
>= 10000Nicht signifikant 
HYERES/LE PALYVE
FR 3
Mi 18.05. 19:00221878 %1020
1020
1020
OSO 2 (6)
ONO - SSO
>= 10000Nicht signifikant 
HYERES/LE PALYVE
FR 3
Mi 18.05. 18:30221878 %1020
1020
1020
SO 3 (7)
O - S
>= 10000Nicht signifikant 
HYERES/LE PALYVE
FR 3
Mi 18.05. 18:00221773 %1020
1020
1020
OSO 3 (7)>= 10000Nicht signifikant 
HYERES/LE PALYVE
FR 3
Mi 18.05. 17:30221878 %1020
1020
1020
OSO 3 (8)
O - S
>= 10000Nicht signifikant 
HYERES/LE PALYVE
FR 3
Mi 18.05. 17:00221878 %1019
1019
1019
OSO 3 (7)
O - SSO
>= 10000Nicht signifikant 
HYERES/LE PALYVE
FR 3
Mi 18.05. 16:30221878 %1020
1020
1020
OSO 3 (8)
O - SSO
>= 10000Nicht signifikant 
HYERES/LE PALYVE
FR 3
Mi 18.05. 16:00221878 %1020
1020
1020
OSO 3 (9)
O - SSO
>= 10000Nicht signifikant 
HYERES/LE PALYVE
FR 3
Mi 18.05. 15:30221878 %1020
1020
1020
SO 3 (9)
O - SSO
>= 10000Nicht signifikant 
HYERES/LE PALYVE
FR 3
Mi 18.05. 15:00231873 %1020
1020
1020
OSO 3 (9)
O - SO
>= 10000Nicht signifikant 

Altimeter: Einstellung am Altimeter (Höhenmesser), die Höhe 0 muss auf diesen Luftdruckwert zeigen, damit das Gerät die Stationshöhe richtig anzeigt.

NN: Luftdruck reduziert auf "Normal Null", auf Meereshöhe, dieser von der Temperatur abhängige Wert wird bisweilen unkorrekt einfach als "Luftdruck" bezeichnet. Eigentlich nur eine fiktive Größe, die es erlaubt, Stationen auf unterschiedlichen Höhen miteinander zu vergleichen.

Station: Realer Luftdruck an der Station.